sensor_id;sensor_type;location;lat;lon;timestamp;temperature;humidity
11965;DHT22;6042;41.326;19.826;2023-04-24T00:01:47;14.70;99.90
11965;DHT22;6042;41.326;19.826;2023-04-24T00:04:15;14.70;99.90
11965;DHT22;6042;41.326;19.826;2023-04-24T00:06:46;14.60;99.90
11965;DHT22;6042;41.326;19.826;2023-04-24T00:09:16;14.50;99.90
11965;DHT22;6042;41.326;19.826;2023-04-24T00:11:45;14.50;99.90
11965;DHT22;6042;41.326;19.826;2023-04-24T00:14:13;14.50;99.90
11965;DHT22;6042;41.326;19.826;2023-04-24T00:16:41;14.60;99.90
11965;DHT22;6042;41.326;19.826;2023-04-24T00:19:10;14.70;99.90
11965;DHT22;6042;41.326;19.826;2023-04-24T00:21:40;14.70;99.90
11965;DHT22;6042;41.326;19.826;2023-04-24T00:24:10;14.60;99.90
11965;DHT22;6042;41.326;19.826;2023-04-24T00:26:38;14.50;99.90
11965;DHT22;6042;41.326;19.826;2023-04-24T00:29:07;14.60;99.90
11965;DHT22;6042;41.326;19.826;2023-04-24T00:31:35;14.60;99.90
11965;DHT22;6042;41.326;19.826;2023-04-24T00:34:04;14.60;99.90
11965;DHT22;6042;41.326;19.826;2023-04-24T00:36:33;14.60;99.90
11965;DHT22;6042;41.326;19.826;2023-04-24T00:39:02;14.40;99.90
11965;DHT22;6042;41.326;19.826;2023-04-24T00:41:32;14.40;99.90
11965;DHT22;6042;41.326;19.826;2023-04-24T00:44:01;14.30;99.90
11965;DHT22;6042;41.326;19.826;2023-04-24T00:46:29;14.30;99.90
11965;DHT22;6042;41.326;19.826;2023-04-24T00:48:59;14.40;99.90
11965;DHT22;6042;41.326;19.826;2023-04-24T00:51:27;14.20;99.90
11965;DHT22;6042;41.326;19.826;2023-04-24T00:53:58;14.10;99.90
11965;DHT22;6042;41.326;19.826;2023-04-24T00:56:28;14.00;99.90
11965;DHT22;6042;41.326;19.826;2023-04-24T00:58:59;14.00;99.90
11965;DHT22;6042;41.326;19.826;2023-04-24T01:01:28;14.00;99.90
11965;DHT22;6042;41.326;19.826;2023-04-24T01:03:57;14.00;99.90
11965;DHT22;6042;41.326;19.826;2023-04-24T01:06:28;13.90;99.90
11965;DHT22;6042;41.326;19.826;2023-04-24T01:08:58;13.90;99.90
11965;DHT22;6042;41.326;19.826;2023-04-24T01:11:30;13.90;99.90
11965;DHT22;6042;41.326;19.826;2023-04-24T01:14:00;13.70;99.90
11965;DHT22;6042;41.326;19.826;2023-04-24T01:16:29;13.80;99.90
11965;DHT22;6042;41.326;19.826;2023-04-24T01:18:57;13.90;99.90
11965;DHT22;6042;41.326;19.826;2023-04-24T01:21:27;13.90;99.90
11965;DHT22;6042;41.326;19.826;2023-04-24T01:23:58;13.90;99.90
11965;DHT22;6042;41.326;19.826;2023-04-24T01:26:26;13.90;99.90
11965;DHT22;6042;41.326;19.826;2023-04-24T01:28:56;13.90;99.90
11965;DHT22;6042;41.326;19.826;2023-04-24T01:31:24;13.90;99.90
11965;DHT22;6042;41.326;19.826;2023-04-24T01:33:54;13.90;99.90
11965;DHT22;6042;41.326;19.826;2023-04-24T01:36:24;13.80;99.90
11965;DHT22;6042;41.326;19.826;2023-04-24T01:38:54;13.80;99.90
11965;DHT22;6042;41.326;19.826;2023-04-24T01:41:26;13.70;99.90
11965;DHT22;6042;41.326;19.826;2023-04-24T01:43:56;13.70;99.90
11965;DHT22;6042;41.326;19.826;2023-04-24T01:46:25;13.70;99.90
11965;DHT22;6042;41.326;19.826;2023-04-24T01:48:54;13.70;99.90
11965;DHT22;6042;41.326;19.826;2023-04-24T01:51:23;13.60;99.90
11965;DHT22;6042;41.326;19.826;2023-04-24T01:53:51;13.50;99.90
11965;DHT22;6042;41.326;19.826;2023-04-24T01:56:21;13.60;99.90
11965;DHT22;6042;41.326;19.826;2023-04-24T01:58:52;13.50;99.90
11965;DHT22;6042;41.326;19.826;2023-04-24T02:01:23;13.50;99.90
11965;DHT22;6042;41.326;19.826;2023-04-24T02:03:52;13.50;99.90
11965;DHT22;6042;41.326;19.826;2023-04-24T02:06:20;13.60;99.90
11965;DHT22;6042;41.326;19.826;2023-04-24T02:08:49;13.70;99.90
11965;DHT22;6042;41.326;19.826;2023-04-24T02:11:17;13.80;99.90
11965;DHT22;6042;41.326;19.826;2023-04-24T02:13:46;13.80;99.90
11965;DHT22;6042;41.326;19.826;2023-04-24T02:16:16;13.80;99.90
11965;DHT22;6042;41.326;19.826;2023-04-24T02:18:44;13.90;99.90
11965;DHT22;6042;41.326;19.826;2023-04-24T02:21:13;13.90;99.90
11965;DHT22;6042;41.326;19.826;2023-04-24T02:23:41;13.80;99.90
11965;DHT22;6042;41.326;19.826;2023-04-24T02:26:12;13.80;99.90
11965;DHT22;6042;41.326;19.826;2023-04-24T02:28:41;13.70;99.90
11965;DHT22;6042;41.326;19.826;2023-04-24T02:31:10;13.70;99.90
11965;DHT22;6042;41.326;19.826;2023-04-24T02:33:41;13.70;99.90
11965;DHT22;6042;41.326;19.826;2023-04-24T02:36:10;13.80;99.90
11965;DHT22;6042;41.326;19.826;2023-04-24T02:38:38;13.70;99.90
11965;DHT22;6042;41.326;19.826;2023-04-24T02:41:07;13.60;99.90
11965;DHT22;6042;41.326;19.826;2023-04-24T02:43:35;13.60;99.90
11965;DHT22;6042;41.326;19.826;2023-04-24T02:46:03;13.60;99.90
11965;DHT22;6042;41.326;19.826;2023-04-24T02:48:32;13.60;99.90
11965;DHT22;6042;41.326;19.826;2023-04-24T02:51:03;13.60;99.90
11965;DHT22;6042;41.326;19.826;2023-04-24T02:53:32;13.60;99.90
11965;DHT22;6042;41.326;19.826;2023-04-24T02:56:00;13.60;99.90
11965;DHT22;6042;41.326;19.826;2023-04-24T02:58:28;13.50;99.90
11965;DHT22;6042;41.326;19.826;2023-04-24T03:00:57;13.40;99.90
11965;DHT22;6042;41.326;19.826;2023-04-24T03:03:25;13.30;99.90
11965;DHT22;6042;41.326;19.826;2023-04-24T03:05:55;13.20;99.90
11965;DHT22;6042;41.326;19.826;2023-04-24T03:08:25;13.20;99.90
11965;DHT22;6042;41.326;19.826;2023-04-24T03:10:53;13.20;99.90
11965;DHT22;6042;41.326;19.826;2023-04-24T03:13:22;13.20;99.90
11965;DHT22;6042;41.326;19.826;2023-04-24T03:15:50;13.20;99.90
11965;DHT22;6042;41.326;19.826;2023-04-24T03:18:20;13.30;99.90
11965;DHT22;6042;41.326;19.826;2023-04-24T03:20:50;13.30;99.90
11965;DHT22;6042;41.326;19.826;2023-04-24T03:23:21;13.40;99.90
11965;DHT22;6042;41.326;19.826;2023-04-24T03:25:51;13.30;99.90
11965;DHT22;6042;41.326;19.826;2023-04-24T03:28:20;13.30;99.90
11965;DHT22;6042;41.326;19.826;2023-04-24T03:30:54;13.30;99.90
11965;DHT22;6042;41.326;19.826;2023-04-24T03:33:24;13.30;99.90
11965;DHT22;6042;41.326;19.826;2023-04-24T03:35:59;13.20;99.90
11965;DHT22;6042;41.326;19.826;2023-04-24T03:38:36;13.20;99.90
11965;DHT22;6042;41.326;19.826;2023-04-24T03:41:21;13.30;99.90
11965;DHT22;6042;41.326;19.826;2023-04-24T03:43:55;13.40;99.90
11965;DHT22;6042;41.326;19.826;2023-04-24T03:46:24;13.40;99.90
11965;DHT22;6042;41.326;19.826;2023-04-24T03:48:57;13.40;99.90
11965;DHT22;6042;41.326;19.826;2023-04-24T03:51:30;13.30;99.90
11965;DHT22;6042;41.326;19.826;2023-04-24T03:54:10;13.30;99.90
11965;DHT22;6042;41.326;19.826;2023-04-24T03:56:41;13.40;99.90
11965;DHT22;6042;41.326;19.826;2023-04-24T03:59:09;13.40;99.90
11965;DHT22;6042;41.326;19.826;2023-04-24T04:01:39;13.50;99.90
11965;DHT22;6042;41.326;19.826;2023-04-24T04:04:16;13.40;99.90
11965;DHT22;6042;41.326;19.826;2023-04-24T04:06:45;13.50;99.90
11965;DHT22;6042;41.326;19.826;2023-04-24T04:09:15;13.50;99.90
11965;DHT22;6042;41.326;19.826;2023-04-24T04:11:44;13.60;99.90
11965;DHT22;6042;41.326;19.826;2023-04-24T04:14:13;13.70;99.90
11965;DHT22;6042;41.326;19.826;2023-04-24T04:16:46;13.60;99.90
11965;DHT22;6042;41.326;19.826;2023-04-24T04:19:15;13.60;99.90
11965;DHT22;6042;41.326;19.826;2023-04-24T04:21:43;13.60;99.90
11965;DHT22;6042;41.326;19.826;2023-04-24T04:24:30;13.60;99.90
11965;DHT22;6042;41.326;19.826;2023-04-24T04:27:02;13.60;99.90
11965;DHT22;6042;41.326;19.826;2023-04-24T04:29:38;13.50;99.90
11965;DHT22;6042;41.326;19.826;2023-04-24T04:32:11;13.50;99.90
11965;DHT22;6042;41.326;19.826;2023-04-24T04:34:39;13.50;99.90
11965;DHT22;6042;41.326;19.826;2023-04-24T04:37:11;13.40;99.90
11965;DHT22;6042;41.326;19.826;2023-04-24T04:39:53;13.40;99.90
11965;DHT22;6042;41.326;19.826;2023-04-24T04:42:26;13.40;99.90
11965;DHT22;6042;41.326;19.826;2023-04-24T04:44:55;13.50;99.90
11965;DHT22;6042;41.326;19.826;2023-04-24T04:47:33;13.50;99.90
11965;DHT22;6042;41.326;19.826;2023-04-24T04:50:04;13.60;99.90
11965;DHT22;6042;41.326;19.826;2023-04-24T04:52:32;13.60;99.90
11965;DHT22;6042;41.326;19.826;2023-04-24T04:55:13;13.60;99.90
11965;DHT22;6042;41.326;19.826;2023-04-24T04:58:09;13.60;99.90
11965;DHT22;6042;41.326;19.826;2023-04-24T05:00:38;13.70;99.90
11965;DHT22;6042;41.326;19.826;2023-04-24T05:03:15;13.80;99.90
11965;DHT22;6042;41.326;19.826;2023-04-24T05:05:53;13.80;99.90
11965;DHT22;6042;41.326;19.826;2023-04-24T05:08:23;14.00;99.90
11965;DHT22;6042;41.326;19.826;2023-04-24T05:10:54;14.00;99.90
11965;DHT22;6042;41.326;19.826;2023-04-24T05:13:27;14.10;99.90
11965;DHT22;6042;41.326;19.826;2023-04-24T05:16:33;14.10;99.90
11965;DHT22;6042;41.326;19.826;2023-04-24T05:19:02;14.30;99.90
11965;DHT22;6042;41.326;19.826;2023-04-24T05:21:35;14.40;99.90
11965;DHT22;6042;41.326;19.826;2023-04-24T05:24:04;14.50;99.90
11965;DHT22;6042;41.326;19.826;2023-04-24T05:26:45;14.60;99.90
11965;DHT22;6042;41.326;19.826;2023-04-24T05:29:18;14.80;99.90
11965;DHT22;6042;41.326;19.826;2023-04-24T05:31:48;14.90;99.90
11965;DHT22;6042;41.326;19.826;2023-04-24T05:34:17;15.00;99.90
11965;DHT22;6042;41.326;19.826;2023-04-24T05:36:49;15.10;99.90
11965;DHT22;6042;41.326;19.826;2023-04-24T05:39:19;15.20;99.90
11965;DHT22;6042;41.326;19.826;2023-04-24T05:41:47;15.20;99.90
11965;DHT22;6042;41.326;19.826;2023-04-24T05:44:17;15.30;99.90
11965;DHT22;6042;41.326;19.826;2023-04-24T05:46:46;15.40;99.90
11965;DHT22;6042;41.326;19.826;2023-04-24T05:49:15;15.60;99.90
11965;DHT22;6042;41.326;19.826;2023-04-24T05:51:45;15.70;99.90
11965;DHT22;6042;41.326;19.826;2023-04-24T05:54:13;15.90;99.90
11965;DHT22;6042;41.326;19.826;2023-04-24T05:56:42;16.10;99.90
11965;DHT22;6042;41.326;19.826;2023-04-24T05:59:20;16.30;99.90
11965;DHT22;6042;41.326;19.826;2023-04-24T06:01:51;16.50;99.90
11965;DHT22;6042;41.326;19.826;2023-04-24T06:04:21;16.60;99.90
11965;DHT22;6042;41.326;19.826;2023-04-24T06:06:52;16.80;99.90
11965;DHT22;6042;41.326;19.826;2023-04-24T06:09:23;17.10;99.90
11965;DHT22;6042;41.326;19.826;2023-04-24T06:11:51;17.40;99.90
11965;DHT22;6042;41.326;19.826;2023-04-24T06:14:25;17.50;99.10
11965;DHT22;6042;41.326;19.826;2023-04-24T06:17:18;17.70;98.90
11965;DHT22;6042;41.326;19.826;2023-04-24T06:19:47;18.00;98.90
11965;DHT22;6042;41.326;19.826;2023-04-24T06:22:17;17.80;98.70
11965;DHT22;6042;41.326;19.826;2023-04-24T06:24:46;17.80;98.70
11965;DHT22;6042;41.326;19.826;2023-04-24T06:27:15;17.80;98.40
11965;DHT22;6042;41.326;19.826;2023-04-24T06:29:45;17.80;98.40
11965;DHT22;6042;41.326;19.826;2023-04-24T06:32:21;17.90;98.40
11965;DHT22;6042;41.326;19.826;2023-04-24T06:34:51;18.10;98.30
11965;DHT22;6042;41.326;19.826;2023-04-24T06:37:20;18.20;97.90
11965;DHT22;6042;41.326;19.826;2023-04-24T06:39:48;18.30;97.70
11965;DHT22;6042;41.326;19.826;2023-04-24T06:42:17;18.30;97.70
11965;DHT22;6042;41.326;19.826;2023-04-24T06:44:50;18.30;97.90
11965;DHT22;6042;41.326;19.826;2023-04-24T06:47:19;18.30;98.20
11965;DHT22;6042;41.326;19.826;2023-04-24T06:49:48;18.40;98.30
11965;DHT22;6042;41.326;19.826;2023-04-24T06:52:18;18.50;97.90
11965;DHT22;6042;41.326;19.826;2023-04-24T06:54:47;18.60;97.90
11965;DHT22;6042;41.326;19.826;2023-04-24T06:57:15;18.80;97.80
11965;DHT22;6042;41.326;19.826;2023-04-24T06:59:44;18.90;97.30
11965;DHT22;6042;41.326;19.826;2023-04-24T07:02:14;19.20;97.20
11965;DHT22;6042;41.326;19.826;2023-04-24T07:04:42;19.40;96.50
11965;DHT22;6042;41.326;19.826;2023-04-24T07:07:12;19.50;96.10
11965;DHT22;6042;41.326;19.826;2023-04-24T07:09:41;19.60;96.00
11965;DHT22;6042;41.326;19.826;2023-04-24T07:12:11;19.60;95.50
11965;DHT22;6042;41.326;19.826;2023-04-24T07:14:40;19.70;95.50
11965;DHT22;6042;41.326;19.826;2023-04-24T07:17:09;19.80;95.70
11965;DHT22;6042;41.326;19.826;2023-04-24T07:19:38;19.80;95.80
11965;DHT22;6042;41.326;19.826;2023-04-24T07:22:07;19.80;96.10
11965;DHT22;6042;41.326;19.826;2023-04-24T07:24:36;19.90;95.80
11965;DHT22;6042;41.326;19.826;2023-04-24T07:27:05;20.00;96.00
11965;DHT22;6042;41.326;19.826;2023-04-24T07:29:33;20.20;95.70
11965;DHT22;6042;41.326;19.826;2023-04-24T07:32:02;20.40;95.20
11965;DHT22;6042;41.326;19.826;2023-04-24T07:34:31;20.40;95.30
11965;DHT22;6042;41.326;19.826;2023-04-24T07:37:01;20.50;95.30
11965;DHT22;6042;41.326;19.826;2023-04-24T07:39:30;20.50;95.50
11965;DHT22;6042;41.326;19.826;2023-04-24T07:41:58;20.70;94.80
11965;DHT22;6042;41.326;19.826;2023-04-24T07:44:29;21.00;94.80
11965;DHT22;6042;41.326;19.826;2023-04-24T07:46:58;21.00;94.00
11965;DHT22;6042;41.326;19.826;2023-04-24T07:49:27;20.90;93.40
11965;DHT22;6042;41.326;19.826;2023-04-24T07:51:55;20.90;93.00
11965;DHT22;6042;41.326;19.826;2023-04-24T07:54:25;21.00;92.80
11965;DHT22;6042;41.326;19.826;2023-04-24T07:56:54;21.20;92.40
11965;DHT22;6042;41.326;19.826;2023-04-24T07:59:22;21.10;91.70
11965;DHT22;6042;41.326;19.826;2023-04-24T08:01:50;21.10;90.80
11965;DHT22;6042;41.326;19.826;2023-04-24T08:04:19;21.20;91.00
11965;DHT22;6042;41.326;19.826;2023-04-24T08:06:48;21.10;91.20
11965;DHT22;6042;41.326;19.826;2023-04-24T08:09:17;20.90;91.10
11965;DHT22;6042;41.326;19.826;2023-04-24T08:11:46;20.90;91.80
11965;DHT22;6042;41.326;19.826;2023-04-24T08:14:15;21.00;91.70
11965;DHT22;6042;41.326;19.826;2023-04-24T08:16:43;20.90;91.80
11965;DHT22;6042;41.326;19.826;2023-04-24T08:19:12;21.30;90.60
11965;DHT22;6042;41.326;19.826;2023-04-24T08:21:40;21.60;89.20
11965;DHT22;6042;41.326;19.826;2023-04-24T08:24:08;21.60;88.10
11965;DHT22;6042;41.326;19.826;2023-04-24T08:26:37;21.70;87.40
11965;DHT22;6042;41.326;19.826;2023-04-24T08:29:07;22.00;86.60
11965;DHT22;6042;41.326;19.826;2023-04-24T08:31:35;22.10;86.80
11965;DHT22;6042;41.326;19.826;2023-04-24T08:34:03;21.90;84.70
11965;DHT22;6042;41.326;19.826;2023-04-24T08:36:32;22.00;84.80
11965;DHT22;6042;41.326;19.826;2023-04-24T08:39:13;22.00;85.00
11965;DHT22;6042;41.326;19.826;2023-04-24T08:41:42;21.80;83.70
11965;DHT22;6042;41.326;19.826;2023-04-24T08:44:14;21.60;84.10
11965;DHT22;6042;41.326;19.826;2023-04-24T08:46:43;21.50;81.90
11965;DHT22;6042;41.326;19.826;2023-04-24T08:49:13;21.60;80.70
11965;DHT22;6042;41.326;19.826;2023-04-24T08:51:44;21.80;80.20
11965;DHT22;6042;41.326;19.826;2023-04-24T08:54:14;22.10;80.30
11965;DHT22;6042;41.326;19.826;2023-04-24T08:56:44;22.20;80.50
11965;DHT22;6042;41.326;19.826;2023-04-24T08:59:16;22.60;79.00
11965;DHT22;6042;41.326;19.826;2023-04-24T09:01:45;23.00;78.30
11965;DHT22;6042;41.326;19.826;2023-04-24T09:04:16;23.10;78.80
11965;DHT22;6042;41.326;19.826;2023-04-24T09:06:48;22.60;80.00
11965;DHT22;6042;41.326;19.826;2023-04-24T09:09:17;22.60;76.00
11965;DHT22;6042;41.326;19.826;2023-04-24T09:11:46;22.50;77.70
11965;DHT22;6042;41.326;19.826;2023-04-24T09:14:19;22.60;77.60
11965;DHT22;6042;41.326;19.826;2023-04-24T09:16:48;22.40;76.90
11965;DHT22;6042;41.326;19.826;2023-04-24T09:19:16;22.30;78.10
11965;DHT22;6042;41.326;19.826;2023-04-24T09:21:46;22.20;78.80
11965;DHT22;6042;41.326;19.826;2023-04-24T09:24:16;22.30;78.70
11965;DHT22;6042;41.326;19.826;2023-04-24T09:26:45;22.20;76.30
11965;DHT22;6042;41.326;19.826;2023-04-24T09:29:15;22.10;76.30
11965;DHT22;6042;41.326;19.826;2023-04-24T09:31:46;22.20;75.80
11965;DHT22;6042;41.326;19.826;2023-04-24T09:34:14;22.10;75.80
11965;DHT22;6042;41.326;19.826;2023-04-24T09:36:48;22.00;74.10
11965;DHT22;6042;41.326;19.826;2023-04-24T09:39:17;22.20;75.30
11965;DHT22;6042;41.326;19.826;2023-04-24T09:41:48;22.30;75.90
11965;DHT22;6042;41.326;19.826;2023-04-24T09:44:18;22.30;75.40
11965;DHT22;6042;41.326;19.826;2023-04-24T09:46:51;22.50;74.90
11965;DHT22;6042;41.326;19.826;2023-04-24T09:49:22;22.60;72.00
11965;DHT22;6042;41.326;19.826;2023-04-24T09:51:51;22.50;71.50
11965;DHT22;6042;41.326;19.826;2023-04-24T09:54:21;22.50;73.50
11965;DHT22;6042;41.326;19.826;2023-04-24T09:56:51;22.60;75.50
11965;DHT22;6042;41.326;19.826;2023-04-24T09:59:19;22.60;74.50
11965;DHT22;6042;41.326;19.826;2023-04-24T10:01:49;22.60;75.10
11965;DHT22;6042;41.326;19.826;2023-04-24T10:04:21;22.70;73.70
11965;DHT22;6042;41.326;19.826;2023-04-24T10:06:53;22.90;73.10
11965;DHT22;6042;41.326;19.826;2023-04-24T10:09:23;22.90;71.60
11965;DHT22;6042;41.326;19.826;2023-04-24T10:11:54;23.00;72.70
11965;DHT22;6042;41.326;19.826;2023-04-24T10:14:23;23.10;72.00
11965;DHT22;6042;41.326;19.826;2023-04-24T10:16:55;23.40;71.50
11965;DHT22;6042;41.326;19.826;2023-04-24T10:19:26;23.60;71.20
11965;DHT22;6042;41.326;19.826;2023-04-24T10:21:54;23.90;70.90
11965;DHT22;6042;41.326;19.826;2023-04-24T10:24:24;23.70;70.40
11965;DHT22;6042;41.326;19.826;2023-04-24T10:26:52;24.10;69.90
11965;DHT22;6042;41.326;19.826;2023-04-24T10:29:21;24.20;70.80
11965;DHT22;6042;41.326;19.826;2023-04-24T10:31:49;24.10;69.50
11965;DHT22;6042;41.326;19.826;2023-04-24T10:34:20;24.00;70.80
11965;DHT22;6042;41.326;19.826;2023-04-24T10:36:51;24.10;69.50
11965;DHT22;6042;41.326;19.826;2023-04-24T10:39:24;24.40;69.30
11965;DHT22;6042;41.326;19.826;2023-04-24T10:41:54;24.70;68.50
11965;DHT22;6042;41.326;19.826;2023-04-24T10:44:24;24.80;68.40
11965;DHT22;6042;41.326;19.826;2023-04-24T10:46:55;24.80;68.00
11965;DHT22;6042;41.326;19.826;2023-04-24T10:49:29;24.60;68.30
11965;DHT22;6042;41.326;19.826;2023-04-24T10:52:01;24.10;69.50
11965;DHT22;6042;41.326;19.826;2023-04-24T10:54:35;24.00;71.80
11965;DHT22;6042;41.326;19.826;2023-04-24T10:57:26;24.40;69.70
11965;DHT22;6042;41.326;19.826;2023-04-24T11:00:15;24.60;70.10
11965;DHT22;6042;41.326;19.826;2023-04-24T11:02:46;24.40;69.90
11965;DHT22;6042;41.326;19.826;2023-04-24T11:05:20;24.70;67.60
11965;DHT22;6042;41.326;19.826;2023-04-24T11:08:10;24.80;67.50
11965;DHT22;6042;41.326;19.826;2023-04-24T11:10:40;24.90;67.70
11965;DHT22;6042;41.326;19.826;2023-04-24T11:13:14;25.00;67.40
11965;DHT22;6042;41.326;19.826;2023-04-24T11:15:43;24.70;69.20
11965;DHT22;6042;41.326;19.826;2023-04-24T11:18:15;25.00;68.70
11965;DHT22;6042;41.326;19.826;2023-04-24T11:20:46;24.90;68.70
11965;DHT22;6042;41.326;19.826;2023-04-24T11:23:15;24.60;67.30
11965;DHT22;6042;41.326;19.826;2023-04-24T11:25:44;24.50;68.00
11965;DHT22;6042;41.326;19.826;2023-04-24T11:28:14;24.80;67.90
11965;DHT22;6042;41.326;19.826;2023-04-24T11:30:44;24.70;68.40
11965;DHT22;6042;41.326;19.826;2023-04-24T11:33:20;24.50;68.80
11965;DHT22;6042;41.326;19.826;2023-04-24T11:35:51;24.80;67.50
11965;DHT22;6042;41.326;19.826;2023-04-24T11:38:20;24.90;67.50
11965;DHT22;6042;41.326;19.826;2023-04-24T11:40:52;25.00;68.00
11965;DHT22;6042;41.326;19.826;2023-04-24T11:43:21;25.00;68.60
11965;DHT22;6042;41.326;19.826;2023-04-24T11:45:49;25.00;67.70
11965;DHT22;6042;41.326;19.826;2023-04-24T11:48:19;24.70;68.80
11965;DHT22;6042;41.326;19.826;2023-04-24T11:50:51;24.50;69.90
11965;DHT22;6042;41.326;19.826;2023-04-24T11:53:20;24.40;69.80
11965;DHT22;6042;41.326;19.826;2023-04-24T11:55:49;24.30;70.30
11965;DHT22;6042;41.326;19.826;2023-04-24T11:58:21;24.10;70.50
11965;DHT22;6042;41.326;19.826;2023-04-24T12:00:56;24.20;71.10
11965;DHT22;6042;41.326;19.826;2023-04-24T12:03:26;24.40;71.50
11965;DHT22;6042;41.326;19.826;2023-04-24T12:06:06;24.70;71.60
11965;DHT22;6042;41.326;19.826;2023-04-24T12:08:35;24.60;73.70
11965;DHT22;6042;41.326;19.826;2023-04-24T12:11:06;24.30;74.40
11965;DHT22;6042;41.326;19.826;2023-04-24T12:13:35;23.80;77.50
11965;DHT22;6042;41.326;19.826;2023-04-24T12:16:04;23.80;79.70
11965;DHT22;6042;41.326;19.826;2023-04-24T12:18:34;23.70;81.70
11965;DHT22;6042;41.326;19.826;2023-04-24T12:21:20;23.70;83.00
11965;DHT22;6042;41.326;19.826;2023-04-24T12:23:49;23.40;83.70
11965;DHT22;6042;41.326;19.826;2023-04-24T12:26:19;23.10;84.40
11965;DHT22;6042;41.326;19.826;2023-04-24T12:28:50;22.90;84.90
11965;DHT22;6042;41.326;19.826;2023-04-24T12:31:21;22.60;86.10
11965;DHT22;6042;41.326;19.826;2023-04-24T12:33:49;22.30;87.20
11965;DHT22;6042;41.326;19.826;2023-04-24T12:36:21;21.90;88.70
11965;DHT22;6042;41.326;19.826;2023-04-24T12:38:53;21.60;89.50
11965;DHT22;6042;41.326;19.826;2023-04-24T12:41:22;21.40;89.50
11965;DHT22;6042;41.326;19.826;2023-04-24T12:43:51;21.20;90.30
11965;DHT22;6042;41.326;19.826;2023-04-24T12:46:20;21.20;90.40
11965;DHT22;6042;41.326;19.826;2023-04-24T12:48:49;21.40;90.20
11965;DHT22;6042;41.326;19.826;2023-04-24T12:51:19;21.30;90.10
11965;DHT22;6042;41.326;19.826;2023-04-24T12:53:47;21.10;90.40
11965;DHT22;6042;41.326;19.826;2023-04-24T12:56:15;21.10;90.60
11965;DHT22;6042;41.326;19.826;2023-04-24T12:58:44;21.20;90.20
11965;DHT22;6042;41.326;19.826;2023-04-24T13:01:12;21.30;90.10
11965;DHT22;6042;41.326;19.826;2023-04-24T13:03:41;21.30;90.00
11965;DHT22;6042;41.326;19.826;2023-04-24T13:06:10;21.40;89.70
11965;DHT22;6042;41.326;19.826;2023-04-24T13:08:40;21.40;89.10
11965;DHT22;6042;41.326;19.826;2023-04-24T13:11:08;21.30;85.40
11965;DHT22;6042;41.326;19.826;2023-04-24T13:13:36;21.30;85.60
11965;DHT22;6042;41.326;19.826;2023-04-24T13:16:05;21.30;86.60
11965;DHT22;6042;41.326;19.826;2023-04-24T13:18:34;21.30;86.90
11965;DHT22;6042;41.326;19.826;2023-04-24T13:21:02;21.20;86.50
11965;DHT22;6042;41.326;19.826;2023-04-24T13:23:30;21.10;87.90
11965;DHT22;6042;41.326;19.826;2023-04-24T13:26:00;21.00;88.00
11965;DHT22;6042;41.326;19.826;2023-04-24T13:28:28;21.00;87.80
11965;DHT22;6042;41.326;19.826;2023-04-24T13:30:57;20.70;86.30
11965;DHT22;6042;41.326;19.826;2023-04-24T13:33:26;20.50;85.90
11965;DHT22;6042;41.326;19.826;2023-04-24T13:35:54;20.40;90.00
11965;DHT22;6042;41.326;19.826;2023-04-24T13:38:23;20.30;89.90
11965;DHT22;6042;41.326;19.826;2023-04-24T13:40:51;20.30;90.30
11965;DHT22;6042;41.326;19.826;2023-04-24T13:43:21;20.30;91.10
11965;DHT22;6042;41.326;19.826;2023-04-24T13:45:50;20.30;90.30
11965;DHT22;6042;41.326;19.826;2023-04-24T13:48:18;20.40;89.50
11965;DHT22;6042;41.326;19.826;2023-04-24T13:50:47;20.50;89.60
11965;DHT22;6042;41.326;19.826;2023-04-24T13:53:16;20.60;88.50
11965;DHT22;6042;41.326;19.826;2023-04-24T13:55:45;20.60;86.80
11965;DHT22;6042;41.326;19.826;2023-04-24T13:58:14;20.60;86.80
11965;DHT22;6042;41.326;19.826;2023-04-24T14:00:44;20.60;87.10
11965;DHT22;6042;41.326;19.826;2023-04-24T14:03:12;20.70;88.80
11965;DHT22;6042;41.326;19.826;2023-04-24T14:05:41;20.70;89.00
11965;DHT22;6042;41.326;19.826;2023-04-24T14:08:09;20.50;89.80
11965;DHT22;6042;41.326;19.826;2023-04-24T14:10:37;20.60;88.60
11965;DHT22;6042;41.326;19.826;2023-04-24T14:13:06;20.60;90.00
11965;DHT22;6042;41.326;19.826;2023-04-24T14:15:35;20.60;88.20
11965;DHT22;6042;41.326;19.826;2023-04-24T14:18:05;20.50;88.80
11965;DHT22;6042;41.326;19.826;2023-04-24T14:20:34;20.50;89.10
11965;DHT22;6042;41.326;19.826;2023-04-24T14:23:02;20.50;86.60
11965;DHT22;6042;41.326;19.826;2023-04-24T14:25:31;20.70;86.40
11965;DHT22;6042;41.326;19.826;2023-04-24T14:27:59;20.70;87.40
11965;DHT22;6042;41.326;19.826;2023-04-24T14:30:28;20.60;89.50
11965;DHT22;6042;41.326;19.826;2023-04-24T14:32:56;20.60;88.80
11965;DHT22;6042;41.326;19.826;2023-04-24T14:35:27;20.70;90.20
11965;DHT22;6042;41.326;19.826;2023-04-24T14:37:58;20.80;90.30
11965;DHT22;6042;41.326;19.826;2023-04-24T14:40:26;20.90;90.70
11965;DHT22;6042;41.326;19.826;2023-04-24T14:43:16;20.90;90.00
11965;DHT22;6042;41.326;19.826;2023-04-24T14:45:44;20.80;90.30
11965;DHT22;6042;41.326;19.826;2023-04-24T14:48:13;20.80;88.20
11965;DHT22;6042;41.326;19.826;2023-04-24T14:50:44;21.00;89.80
11965;DHT22;6042;41.326;19.826;2023-04-24T14:53:13;21.20;87.50
11965;DHT22;6042;41.326;19.826;2023-04-24T14:55:42;21.50;85.70
11965;DHT22;6042;41.326;19.826;2023-04-24T14:58:11;21.90;83.40
11965;DHT22;6042;41.326;19.826;2023-04-24T15:00:39;21.90;83.40
11965;DHT22;6042;41.326;19.826;2023-04-24T15:03:07;21.80;84.10
11965;DHT22;6042;41.326;19.826;2023-04-24T15:05:36;21.40;83.90
11965;DHT22;6042;41.326;19.826;2023-04-24T15:08:06;21.00;86.20
11965;DHT22;6042;41.326;19.826;2023-04-24T15:10:35;20.70;87.50
11965;DHT22;6042;41.326;19.826;2023-04-24T15:13:03;20.60;86.70
11965;DHT22;6042;41.326;19.826;2023-04-24T15:15:32;20.50;90.10
11965;DHT22;6042;41.326;19.826;2023-04-24T15:18:00;20.30;90.30
11965;DHT22;6042;41.326;19.826;2023-04-24T15:20:28;20.20;89.50
11965;DHT22;6042;41.326;19.826;2023-04-24T15:22:57;20.30;88.80
11965;DHT22;6042;41.326;19.826;2023-04-24T15:25:28;20.20;90.50
11965;DHT22;6042;41.326;19.826;2023-04-24T15:27:58;19.90;91.10
11965;DHT22;6042;41.326;19.826;2023-04-24T15:30:27;19.90;91.30
11965;DHT22;6042;41.326;19.826;2023-04-24T15:32:55;19.70;91.20
11965;DHT22;6042;41.326;19.826;2023-04-24T15:35:24;19.50;91.90
11965;DHT22;6042;41.326;19.826;2023-04-24T15:37:52;19.40;93.00
11965;DHT22;6042;41.326;19.826;2023-04-24T15:40:20;19.00;94.00
11965;DHT22;6042;41.326;19.826;2023-04-24T15:42:50;18.90;94.80
11965;DHT22;6042;41.326;19.826;2023-04-24T15:45:19;18.80;94.90
11965;DHT22;6042;41.326;19.826;2023-04-24T15:47:47;18.70;95.60
11965;DHT22;6042;41.326;19.826;2023-04-24T15:50:16;18.70;96.30